createdAt,value
2023-04-28T00:05:09.050Z,97325.80
2023-04-28T00:15:13.553Z,97325.67
2023-04-28T00:25:16.660Z,97320.30
2023-04-28T00:35:19.777Z,97315.11
2023-04-28T00:45:22.903Z,97316.52
2023-04-28T00:55:26.693Z,97314.95
2023-04-28T01:05:31.973Z,97312.96
2023-04-28T01:15:35.653Z,97310.77
2023-04-28T01:25:38.791Z,97312.62
2023-04-28T01:35:42.041Z,97316.67
2023-04-28T01:45:46.897Z,97316.94
2023-04-28T01:55:50.060Z,97321.52
2023-04-28T02:05:55.508Z,97326.08
2023-04-28T02:16:02.649Z,97330.52
2023-04-28T02:26:06.720Z,97341.56
2023-04-28T02:36:11.293Z,97338.88
2023-04-28T02:46:14.520Z,97341.75
2023-04-28T02:56:18.521Z,97346.60
2023-04-28T03:06:21.761Z,97344.26
2023-04-28T03:16:25.635Z,97337.58
2023-04-28T03:26:28.934Z,97339.62
2023-04-28T03:36:32.172Z,97343.04
2023-04-28T03:46:42.084Z,97343.00
2023-04-28T03:56:46.626Z,97351.64
2023-04-28T04:06:50.006Z,97356.33
2023-04-28T04:16:55.649Z,97353.66
2023-04-28T04:26:59.570Z,97351.23
2023-04-28T04:37:07.938Z,97345.52
2023-04-28T04:47:13.743Z,97340.05
2023-04-28T04:57:17.567Z,97334.27
2023-04-28T05:07:39.170Z,97330.46
2023-04-28T05:17:43.302Z,97328.61
2023-04-28T05:27:47.112Z,97325.80
2023-04-28T05:37:50.684Z,97323.15
2023-04-28T05:47:54.841Z,97323.67
2023-04-28T05:57:59.992Z,97321.74
2023-04-28T06:08:03.776Z,97326.41
2023-04-28T06:18:09.841Z,97319.96
2023-04-28T06:28:15.128Z,97316.74
2023-04-28T06:38:18.334Z,97299.42
2023-04-28T06:48:21.607Z,97297.92
2023-04-28T06:58:24.792Z,97288.25
2023-04-28T07:08:29.973Z,97272.88
2023-04-28T07:18:33.052Z,97262.69
2023-04-28T07:28:36.300Z,97250.42
2023-04-28T07:38:39.473Z,97242.10
2023-04-28T07:48:42.765Z,97233.75
2023-04-28T07:58:45.986Z,97229.08
2023-04-28T08:08:49.321Z,97227.31
2023-04-28T08:18:52.853Z,97221.88
2023-04-28T08:28:56.059Z,97212.24
2023-04-28T08:39:03.407Z,97206.09
2023-04-28T08:49:09.210Z,97199.78
2023-04-28T08:59:13.456Z,97193.41
2023-04-28T09:09:22.667Z,97186.77
2023-04-28T09:19:36.676Z,97178.70
2023-04-28T09:29:51.839Z,97175.30
2023-04-28T09:39:55.382Z,97165.65
2023-04-28T09:50:00.522Z,97152.24
2023-04-28T10:00:06.997Z,97143.14
2023-04-28T10:10:11.080Z,97138.98
2023-04-28T10:20:16.655Z,97128.95
2023-04-28T10:30:28.085Z,97116.73
2023-04-28T10:40:36.675Z,97101.91
2023-04-28T10:51:09.950Z,97089.64
2023-04-28T11:01:19.136Z,97073.84
2023-04-28T11:11:25.842Z,97057.36
2023-04-28T11:21:29.692Z,97042.59
2023-04-28T11:31:32.933Z,97030.08
2023-04-28T11:41:41.200Z,97019.66
2023-04-28T11:51:49.687Z,97014.77
2023-04-28T12:01:59.665Z,97005.72
2023-04-28T12:12:05.303Z,96977.95
2023-04-28T12:22:08.696Z,96966.43
2023-04-28T12:32:12.901Z,96949.93
2023-04-28T12:42:16.189Z,96933.67
2023-04-28T12:52:21.173Z,96924.89
2023-04-28T13:02:24.845Z,96909.92
2023-04-28T13:12:28.330Z,96899.88
2023-04-28T13:22:31.670Z,96884.03
2023-04-28T13:32:34.852Z,96876.59
2023-04-28T13:42:38.154Z,96863.73
2023-04-28T13:52:41.600Z,96842.70
2023-04-28T14:02:46.144Z,96831.95
2023-04-28T14:12:49.497Z,96817.01
2023-04-28T14:22:52.728Z,96803.48
2023-04-28T14:32:55.862Z,96795.38
2023-04-28T14:42:58.949Z,96787.75
2023-04-28T14:53:07.149Z,96785.63
2023-04-28T15:03:10.562Z,96776.11
2023-04-28T15:13:13.796Z,96770.60
2023-04-28T15:23:17.570Z,96760.83
2023-04-28T15:33:20.637Z,96755.73
2023-04-28T15:43:25.274Z,96746.38
2023-04-28T15:53:28.471Z,96751.33
2023-04-28T16:03:31.925Z,96758.69
2023-04-28T16:13:37.305Z,96756.09
2023-04-28T16:23:40.560Z,96754.54
2023-04-28T16:33:43.696Z,96741.58
2023-04-28T16:43:46.896Z,96725.23
2023-04-28T16:53:50.148Z,96726.20
2023-04-28T17:03:53.776Z,96716.89
2023-04-28T17:13:58.048Z,96726.23
2023-04-28T17:24:01.790Z,96727.14
2023-04-28T17:34:04.848Z,96731.80
2023-04-28T17:44:09.252Z,96732.70
2023-04-28T17:54:12.533Z,96724.88
2023-04-28T18:04:15.686Z,96721.54
2023-04-28T18:14:18.893Z,96714.98
2023-04-28T18:24:22.138Z,96712.91
2023-04-28T18:34:25.801Z,96718.96
2023-04-28T18:44:29.026Z,96727.79
2023-04-28T18:54:33.073Z,96724.47
2023-04-28T19:04:39.344Z,96728.95
2023-04-28T19:14:42.481Z,96735.06
2023-04-28T19:24:46.032Z,96731.73
2023-04-28T19:34:50.525Z,96733.30
2023-04-28T19:44:55.933Z,96730.23
2023-04-28T19:55:00.688Z,96733.95
2023-04-28T20:05:04.202Z,96734.35
2023-04-28T20:15:08.848Z,96732.66
2023-04-28T20:25:12.932Z,96734.08
2023-04-28T20:35:16.075Z,96740.02
2023-04-28T20:45:20.439Z,96741.73
2023-04-28T20:55:23.736Z,96741.86
2023-04-28T21:05:27.330Z,96737.61
2023-04-28T21:15:36.505Z,96731.39
2023-04-28T21:25:39.765Z,96735.81
2023-04-28T21:35:43.811Z,96737.73
2023-04-28T21:45:47.220Z,96735.35
2023-04-28T21:55:50.519Z,96742.48
2023-04-28T22:05:53.615Z,96731.55
2023-04-28T22:15:56.870Z,96728.27
2023-04-28T22:26:00.024Z,96726.02
2023-04-28T22:36:03.154Z,96720.14
2023-04-28T22:46:06.440Z,96720.70
2023-04-28T22:56:09.695Z,96722.31
2023-04-28T23:06:13.014Z,96725.73
2023-04-28T23:16:16.659Z,96722.77
2023-04-28T23:26:20.981Z,96714.91
2023-04-28T23:36:24.443Z,96705.19
2023-04-28T23:46:29.137Z,96694.19
2023-04-28T23:56:32.341Z,96682.73
